sensor_id;sensor_type;location;lat;lon;timestamp;temperature;humidity
21772;DHT22;11047;47.904;8.110;2022-10-15T00:01:11;13.60;99.90
21772;DHT22;11047;47.904;8.110;2022-10-15T00:03:39;13.70;99.90
21772;DHT22;11047;47.904;8.110;2022-10-15T00:06:08;13.60;99.90
21772;DHT22;11047;47.904;8.110;2022-10-15T00:08:37;13.70;99.90
21772;DHT22;11047;47.904;8.110;2022-10-15T00:11:06;13.60;99.90
21772;DHT22;11047;47.904;8.110;2022-10-15T00:13:34;13.60;99.90
21772;DHT22;11047;47.904;8.110;2022-10-15T00:16:02;13.60;99.90
21772;DHT22;11047;47.904;8.110;2022-10-15T00:18:28;13.70;99.90
21772;DHT22;11047;47.904;8.110;2022-10-15T00:20:55;13.60;99.90
21772;DHT22;11047;47.904;8.110;2022-10-15T00:23:22;13.60;99.90
21772;DHT22;11047;47.904;8.110;2022-10-15T00:26:00;13.60;99.90
21772;DHT22;11047;47.904;8.110;2022-10-15T00:28:27;13.60;99.90
21772;DHT22;11047;47.904;8.110;2022-10-15T00:30:59;13.60;99.90
21772;DHT22;11047;47.904;8.110;2022-10-15T00:33:26;13.60;99.90
21772;DHT22;11047;47.904;8.110;2022-10-15T00:35:58;13.50;99.90
21772;DHT22;11047;47.904;8.110;2022-10-15T00:38:25;13.50;99.90
21772;DHT22;11047;47.904;8.110;2022-10-15T00:40:53;13.50;99.90
21772;DHT22;11047;47.904;8.110;2022-10-15T00:43:39;13.50;99.90
21772;DHT22;11047;47.904;8.110;2022-10-15T00:46:14;13.50;99.90
21772;DHT22;11047;47.904;8.110;2022-10-15T00:48:42;13.50;99.90
21772;DHT22;11047;47.904;8.110;2022-10-15T00:51:09;13.50;99.90
21772;DHT22;11047;47.904;8.110;2022-10-15T00:53:36;13.40;99.90
21772;DHT22;11047;47.904;8.110;2022-10-15T00:56:05;13.50;99.90
21772;DHT22;11047;47.904;8.110;2022-10-15T00:58:34;13.50;99.90
21772;DHT22;11047;47.904;8.110;2022-10-15T01:01:01;13.50;99.90
21772;DHT22;11047;47.904;8.110;2022-10-15T01:03:28;13.50;99.90
21772;DHT22;11047;47.904;8.110;2022-10-15T01:05:55;13.50;99.90
21772;DHT22;11047;47.904;8.110;2022-10-15T01:08:22;13.50;99.90
21772;DHT22;11047;47.904;8.110;2022-10-15T01:10:54;13.50;99.90
21772;DHT22;11047;47.904;8.110;2022-10-15T01:13:34;13.40;99.90
21772;DHT22;11047;47.904;8.110;2022-10-15T01:16:07;13.40;99.90
21772;DHT22;11047;47.904;8.110;2022-10-15T01:18:40;13.50;99.90
21772;DHT22;11047;47.904;8.110;2022-10-15T01:21:13;13.50;99.90
21772;DHT22;11047;47.904;8.110;2022-10-15T01:24:10;13.40;99.90
21772;DHT22;11047;47.904;8.110;2022-10-15T01:27:08;13.40;99.90
21772;DHT22;11047;47.904;8.110;2022-10-15T01:29:54;13.30;99.90
21772;DHT22;11047;47.904;8.110;2022-10-15T01:32:27;13.30;99.90
21772;DHT22;11047;47.904;8.110;2022-10-15T01:34:57;13.20;99.90
21772;DHT22;11047;47.904;8.110;2022-10-15T01:37:49;13.20;99.90
21772;DHT22;11047;47.904;8.110;2022-10-15T01:40:21;13.20;99.90
21772;DHT22;11047;47.904;8.110;2022-10-15T01:42:53;13.10;99.90
21772;DHT22;11047;47.904;8.110;2022-10-15T01:45:26;13.20;99.90
21772;DHT22;11047;47.904;8.110;2022-10-15T01:48:00;13.20;99.90
21772;DHT22;11047;47.904;8.110;2022-10-15T01:50:30;13.20;99.90
21772;DHT22;11047;47.904;8.110;2022-10-15T01:52:59;13.20;99.90
21772;DHT22;11047;47.904;8.110;2022-10-15T01:55:28;13.20;99.90
21772;DHT22;11047;47.904;8.110;2022-10-15T01:57:57;13.20;99.90
21772;DHT22;11047;47.904;8.110;2022-10-15T02:00:25;13.30;99.90
21772;DHT22;11047;47.904;8.110;2022-10-15T02:02:51;13.30;99.90
21772;DHT22;11047;47.904;8.110;2022-10-15T02:05:23;13.30;99.90
21772;DHT22;11047;47.904;8.110;2022-10-15T02:07:56;13.20;99.90
21772;DHT22;11047;47.904;8.110;2022-10-15T02:10:27;13.20;99.90
21772;DHT22;11047;47.904;8.110;2022-10-15T02:13:04;13.20;99.90
21772;DHT22;11047;47.904;8.110;2022-10-15T02:15:44;13.20;99.90
21772;DHT22;11047;47.904;8.110;2022-10-15T02:18:17;13.20;99.90
21772;DHT22;11047;47.904;8.110;2022-10-15T02:20:50;13.20;99.90
21772;DHT22;11047;47.904;8.110;2022-10-15T02:23:24;13.20;99.90
21772;DHT22;11047;47.904;8.110;2022-10-15T02:25:52;13.20;99.90
21772;DHT22;11047;47.904;8.110;2022-10-15T02:28:21;13.20;99.90
21772;DHT22;11047;47.904;8.110;2022-10-15T02:30:50;13.20;99.90
21772;DHT22;11047;47.904;8.110;2022-10-15T02:33:19;13.20;99.90
21772;DHT22;11047;47.904;8.110;2022-10-15T02:35:49;13.20;99.90
21772;DHT22;11047;47.904;8.110;2022-10-15T02:38:19;13.20;99.90
21772;DHT22;11047;47.904;8.110;2022-10-15T02:40:47;13.20;99.90
21772;DHT22;11047;47.904;8.110;2022-10-15T02:43:15;13.20;99.90
21772;DHT22;11047;47.904;8.110;2022-10-15T02:45:44;13.20;99.90
21772;DHT22;11047;47.904;8.110;2022-10-15T02:48:11;13.20;99.90
21772;DHT22;11047;47.904;8.110;2022-10-15T02:50:38;13.20;99.90
21772;DHT22;11047;47.904;8.110;2022-10-15T02:53:06;13.20;99.90
21772;DHT22;11047;47.904;8.110;2022-10-15T02:55:33;13.20;99.90
21772;DHT22;11047;47.904;8.110;2022-10-15T02:58:00;13.20;99.90
21772;DHT22;11047;47.904;8.110;2022-10-15T03:00:27;13.10;99.90
21772;DHT22;11047;47.904;8.110;2022-10-15T03:02:54;13.10;99.90
21772;DHT22;11047;47.904;8.110;2022-10-15T03:05:21;13.20;99.90
21772;DHT22;11047;47.904;8.110;2022-10-15T03:07:48;13.20;99.90
21772;DHT22;11047;47.904;8.110;2022-10-15T03:10:17;13.20;99.90
21772;DHT22;11047;47.904;8.110;2022-10-15T03:12:44;13.10;99.90
21772;DHT22;11047;47.904;8.110;2022-10-15T03:15:11;13.10;99.90
21772;DHT22;11047;47.904;8.110;2022-10-15T03:17:38;13.10;99.90
21772;DHT22;11047;47.904;8.110;2022-10-15T03:20:05;13.10;99.90
21772;DHT22;11047;47.904;8.110;2022-10-15T03:22:32;13.00;99.90
21772;DHT22;11047;47.904;8.110;2022-10-15T03:24:59;13.00;99.90
21772;DHT22;11047;47.904;8.110;2022-10-15T03:27:27;13.00;99.90
21772;DHT22;11047;47.904;8.110;2022-10-15T03:29:54;13.00;99.90
21772;DHT22;11047;47.904;8.110;2022-10-15T03:32:21;13.00;99.90
21772;DHT22;11047;47.904;8.110;2022-10-15T03:34:48;13.00;99.90
21772;DHT22;11047;47.904;8.110;2022-10-15T03:37:15;13.00;99.90
21772;DHT22;11047;47.904;8.110;2022-10-15T03:39:41;13.00;99.90
21772;DHT22;11047;47.904;8.110;2022-10-15T03:42:08;13.10;99.90
21772;DHT22;11047;47.904;8.110;2022-10-15T03:44:37;13.10;99.90
21772;DHT22;11047;47.904;8.110;2022-10-15T03:47:04;13.00;99.90
21772;DHT22;11047;47.904;8.110;2022-10-15T03:49:30;13.00;99.90
21772;DHT22;11047;47.904;8.110;2022-10-15T03:51:57;13.00;99.90
21772;DHT22;11047;47.904;8.110;2022-10-15T03:54:24;13.00;99.90
21772;DHT22;11047;47.904;8.110;2022-10-15T03:56:51;13.00;99.90
21772;DHT22;11047;47.904;8.110;2022-10-15T03:59:18;13.00;99.90
21772;DHT22;11047;47.904;8.110;2022-10-15T04:01:47;13.00;99.90
21772;DHT22;11047;47.904;8.110;2022-10-15T04:04:13;13.10;99.90
21772;DHT22;11047;47.904;8.110;2022-10-15T04:06:40;13.10;99.90
21772;DHT22;11047;47.904;8.110;2022-10-15T04:09:10;13.10;99.90
21772;DHT22;11047;47.904;8.110;2022-10-15T04:11:36;13.20;99.90
21772;DHT22;11047;47.904;8.110;2022-10-15T04:14:05;13.10;99.90
21772;DHT22;11047;47.904;8.110;2022-10-15T04:16:32;13.10;99.90
21772;DHT22;11047;47.904;8.110;2022-10-15T04:19:00;13.10;99.90
21772;DHT22;11047;47.904;8.110;2022-10-15T04:21:27;13.00;99.90
21772;DHT22;11047;47.904;8.110;2022-10-15T04:23:54;13.10;99.90
21772;DHT22;11047;47.904;8.110;2022-10-15T04:26:21;13.10;99.90
21772;DHT22;11047;47.904;8.110;2022-10-15T04:28:48;13.00;99.90
21772;DHT22;11047;47.904;8.110;2022-10-15T04:31:15;13.00;99.90
21772;DHT22;11047;47.904;8.110;2022-10-15T04:33:41;13.00;99.90
21772;DHT22;11047;47.904;8.110;2022-10-15T04:36:12;12.90;99.90
21772;DHT22;11047;47.904;8.110;2022-10-15T04:38:39;13.00;99.90
21772;DHT22;11047;47.904;8.110;2022-10-15T04:41:08;12.90;99.90
21772;DHT22;11047;47.904;8.110;2022-10-15T04:43:35;12.90;99.90
21772;DHT22;11047;47.904;8.110;2022-10-15T04:46:04;12.90;99.90
21772;DHT22;11047;47.904;8.110;2022-10-15T04:48:33;12.90;99.90
21772;DHT22;11047;47.904;8.110;2022-10-15T04:51:05;12.90;99.90
21772;DHT22;11047;47.904;8.110;2022-10-15T04:53:34;12.90;99.90
21772;DHT22;11047;47.904;8.110;2022-10-15T04:56:02;12.80;99.90
21772;DHT22;11047;47.904;8.110;2022-10-15T04:58:30;12.90;99.90
21772;DHT22;11047;47.904;8.110;2022-10-15T05:01:00;12.80;99.90
21772;DHT22;11047;47.904;8.110;2022-10-15T05:03:28;12.90;99.90
21772;DHT22;11047;47.904;8.110;2022-10-15T05:05:59;12.90;99.90
21772;DHT22;11047;47.904;8.110;2022-10-15T05:08:26;12.90;99.90
21772;DHT22;11047;47.904;8.110;2022-10-15T05:10:56;12.90;99.90
21772;DHT22;11047;47.904;8.110;2022-10-15T05:13:25;12.90;99.90
21772;DHT22;11047;47.904;8.110;2022-10-15T05:15:52;12.90;99.90
21772;DHT22;11047;47.904;8.110;2022-10-15T05:18:19;12.90;99.90
21772;DHT22;11047;47.904;8.110;2022-10-15T05:20:45;12.90;99.90
21772;DHT22;11047;47.904;8.110;2022-10-15T05:23:13;12.90;99.90
21772;DHT22;11047;47.904;8.110;2022-10-15T05:25:40;13.00;99.90
21772;DHT22;11047;47.904;8.110;2022-10-15T05:28:08;12.90;99.90
21772;DHT22;11047;47.904;8.110;2022-10-15T05:30:35;12.90;99.90
21772;DHT22;11047;47.904;8.110;2022-10-15T05:33:02;12.90;99.90
21772;DHT22;11047;47.904;8.110;2022-10-15T05:35:29;12.90;99.90
21772;DHT22;11047;47.904;8.110;2022-10-15T05:37:56;12.80;99.90
21772;DHT22;11047;47.904;8.110;2022-10-15T05:40:22;12.80;99.90
21772;DHT22;11047;47.904;8.110;2022-10-15T05:42:50;12.80;99.90
21772;DHT22;11047;47.904;8.110;2022-10-15T05:45:19;12.80;99.90
21772;DHT22;11047;47.904;8.110;2022-10-15T05:47:46;12.80;99.90
21772;DHT22;11047;47.904;8.110;2022-10-15T05:50:13;12.80;99.90
21772;DHT22;11047;47.904;8.110;2022-10-15T05:52:40;12.70;99.90
21772;DHT22;11047;47.904;8.110;2022-10-15T05:55:08;12.70;99.90
21772;DHT22;11047;47.904;8.110;2022-10-15T05:57:35;12.70;99.90
21772;DHT22;11047;47.904;8.110;2022-10-15T06:00:02;12.70;99.90
21772;DHT22;11047;47.904;8.110;2022-10-15T06:02:31;12.70;99.90
21772;DHT22;11047;47.904;8.110;2022-10-15T06:04:57;12.70;99.90
21772;DHT22;11047;47.904;8.110;2022-10-15T06:07:24;12.70;99.90
21772;DHT22;11047;47.904;8.110;2022-10-15T06:09:52;12.70;99.90
21772;DHT22;11047;47.904;8.110;2022-10-15T06:12:19;12.70;99.90
21772;DHT22;11047;47.904;8.110;2022-10-15T06:14:46;12.70;99.90
21772;DHT22;11047;47.904;8.110;2022-10-15T06:17:12;12.60;99.90
21772;DHT22;11047;47.904;8.110;2022-10-15T06:19:41;12.50;99.90
21772;DHT22;11047;47.904;8.110;2022-10-15T06:22:07;12.50;99.90
21772;DHT22;11047;47.904;8.110;2022-10-15T06:24:34;12.50;99.90
21772;DHT22;11047;47.904;8.110;2022-10-15T06:27:01;12.50;99.90
21772;DHT22;11047;47.904;8.110;2022-10-15T06:29:28;12.60;99.90
21772;DHT22;11047;47.904;8.110;2022-10-15T06:31:55;12.50;99.90
21772;DHT22;11047;47.904;8.110;2022-10-15T06:34:22;12.50;99.90
21772;DHT22;11047;47.904;8.110;2022-10-15T06:36:50;12.50;99.90
21772;DHT22;11047;47.904;8.110;2022-10-15T06:39:17;12.50;99.90
21772;DHT22;11047;47.904;8.110;2022-10-15T06:41:44;12.50;99.90
21772;DHT22;11047;47.904;8.110;2022-10-15T06:44:11;12.50;99.90
21772;DHT22;11047;47.904;8.110;2022-10-15T06:46:37;12.50;99.90
21772;DHT22;11047;47.904;8.110;2022-10-15T06:49:04;12.50;99.90
21772;DHT22;11047;47.904;8.110;2022-10-15T06:51:31;12.50;99.90
21772;DHT22;11047;47.904;8.110;2022-10-15T06:53:59;12.50;99.90
21772;DHT22;11047;47.904;8.110;2022-10-15T06:56:26;12.40;99.90
21772;DHT22;11047;47.904;8.110;2022-10-15T06:58:53;12.40;99.90
21772;DHT22;11047;47.904;8.110;2022-10-15T07:01:20;12.40;99.90
21772;DHT22;11047;47.904;8.110;2022-10-15T07:03:48;12.40;99.90
21772;DHT22;11047;47.904;8.110;2022-10-15T07:06:15;12.40;99.90
21772;DHT22;11047;47.904;8.110;2022-10-15T07:08:42;12.30;99.90
21772;DHT22;11047;47.904;8.110;2022-10-15T07:11:11;12.50;99.90
21772;DHT22;11047;47.904;8.110;2022-10-15T07:13:38;12.50;99.90
21772;DHT22;11047;47.904;8.110;2022-10-15T07:16:08;12.50;99.90
21772;DHT22;11047;47.904;8.110;2022-10-15T07:18:35;12.40;99.90
21772;DHT22;11047;47.904;8.110;2022-10-15T07:21:03;12.50;99.90
21772;DHT22;11047;47.904;8.110;2022-10-15T07:23:30;12.50;99.90
21772;DHT22;11047;47.904;8.110;2022-10-15T07:25:57;12.40;99.90
21772;DHT22;11047;47.904;8.110;2022-10-15T07:28:26;12.40;99.90
21772;DHT22;11047;47.904;8.110;2022-10-15T07:30:53;12.40;99.90
21772;DHT22;11047;47.904;8.110;2022-10-15T07:33:20;12.40;99.90
21772;DHT22;11047;47.904;8.110;2022-10-15T07:35:47;12.40;99.90
21772;DHT22;11047;47.904;8.110;2022-10-15T07:38:14;12.50;99.90
21772;DHT22;11047;47.904;8.110;2022-10-15T07:40:42;12.50;99.90
21772;DHT22;11047;47.904;8.110;2022-10-15T07:43:09;12.50;99.90
21772;DHT22;11047;47.904;8.110;2022-10-15T07:45:37;12.50;99.90
21772;DHT22;11047;47.904;8.110;2022-10-15T07:48:05;12.60;99.90
21772;DHT22;11047;47.904;8.110;2022-10-15T07:50:32;12.70;99.90
21772;DHT22;11047;47.904;8.110;2022-10-15T07:52:59;12.70;99.90
21772;DHT22;11047;47.904;8.110;2022-10-15T07:55:26;12.70;99.90
21772;DHT22;11047;47.904;8.110;2022-10-15T07:57:55;12.80;99.90
21772;DHT22;11047;47.904;8.110;2022-10-15T08:00:22;12.70;99.90
21772;DHT22;11047;47.904;8.110;2022-10-15T08:02:50;12.70;99.90
21772;DHT22;11047;47.904;8.110;2022-10-15T08:05:17;12.70;99.90
21772;DHT22;11047;47.904;8.110;2022-10-15T08:07:44;12.70;99.90
21772;DHT22;11047;47.904;8.110;2022-10-15T08:10:11;12.80;99.90
21772;DHT22;11047;47.904;8.110;2022-10-15T08:12:38;12.70;99.90
21772;DHT22;11047;47.904;8.110;2022-10-15T08:15:06;12.70;99.90
21772;DHT22;11047;47.904;8.110;2022-10-15T08:17:33;12.80;99.90
21772;DHT22;11047;47.904;8.110;2022-10-15T08:20:02;12.70;99.90
21772;DHT22;11047;47.904;8.110;2022-10-15T08:22:29;12.80;99.90
21772;DHT22;11047;47.904;8.110;2022-10-15T08:24:56;12.70;99.90
21772;DHT22;11047;47.904;8.110;2022-10-15T08:27:22;12.80;99.90
21772;DHT22;11047;47.904;8.110;2022-10-15T08:29:49;12.70;99.90
21772;DHT22;11047;47.904;8.110;2022-10-15T08:32:16;12.80;99.90
21772;DHT22;11047;47.904;8.110;2022-10-15T08:34:44;12.80;99.90
21772;DHT22;11047;47.904;8.110;2022-10-15T08:37:13;12.90;99.90
21772;DHT22;11047;47.904;8.110;2022-10-15T08:39:39;12.90;99.90
21772;DHT22;11047;47.904;8.110;2022-10-15T08:42:15;12.90;99.90
21772;DHT22;11047;47.904;8.110;2022-10-15T08:44:45;12.90;99.90
21772;DHT22;11047;47.904;8.110;2022-10-15T08:47:24;12.90;99.90
21772;DHT22;11047;47.904;8.110;2022-10-15T08:49:53;13.00;99.90
21772;DHT22;11047;47.904;8.110;2022-10-15T08:52:25;13.00;99.90
21772;DHT22;11047;47.904;8.110;2022-10-15T08:54:54;13.10;99.90
21772;DHT22;11047;47.904;8.110;2022-10-15T08:57:32;13.10;99.90
21772;DHT22;11047;47.904;8.110;2022-10-15T09:00:04;13.10;99.90
21772;DHT22;11047;47.904;8.110;2022-10-15T09:02:42;13.10;99.90
21772;DHT22;11047;47.904;8.110;2022-10-15T09:05:23;13.20;99.90
21772;DHT22;11047;47.904;8.110;2022-10-15T09:07:58;13.30;99.90
21772;DHT22;11047;47.904;8.110;2022-10-15T09:10:37;13.20;99.90
21772;DHT22;11047;47.904;8.110;2022-10-15T09:13:09;13.20;99.90
21772;DHT22;11047;47.904;8.110;2022-10-15T09:15:46;13.20;99.90
21772;DHT22;11047;47.904;8.110;2022-10-15T09:18:18;13.20;99.90
21772;DHT22;11047;47.904;8.110;2022-10-15T09:20:46;13.20;99.90
21772;DHT22;11047;47.904;8.110;2022-10-15T09:23:19;13.20;99.90
21772;DHT22;11047;47.904;8.110;2022-10-15T09:25:52;13.20;99.90
21772;DHT22;11047;47.904;8.110;2022-10-15T09:28:23;13.30;99.90
21772;DHT22;11047;47.904;8.110;2022-10-15T09:30:54;13.30;99.90
21772;DHT22;11047;47.904;8.110;2022-10-15T09:33:30;13.30;99.90
21772;DHT22;11047;47.904;8.110;2022-10-15T09:36:05;13.40;99.90
21772;DHT22;11047;47.904;8.110;2022-10-15T09:38:41;13.40;99.90
21772;DHT22;11047;47.904;8.110;2022-10-15T09:41:17;13.30;99.90
21772;DHT22;11047;47.904;8.110;2022-10-15T09:43:48;13.30;99.90
21772;DHT22;11047;47.904;8.110;2022-10-15T09:46:15;13.30;99.90
21772;DHT22;11047;47.904;8.110;2022-10-15T09:48:46;13.30;99.90
21772;DHT22;11047;47.904;8.110;2022-10-15T09:51:22;13.30;99.90
21772;DHT22;11047;47.904;8.110;2022-10-15T09:53:58;13.20;99.90
21772;DHT22;11047;47.904;8.110;2022-10-15T09:56:31;13.20;99.90
21772;DHT22;11047;47.904;8.110;2022-10-15T09:58:59;13.30;99.90
21772;DHT22;11047;47.904;8.110;2022-10-15T10:01:29;13.20;99.90
21772;DHT22;11047;47.904;8.110;2022-10-15T10:04:10;13.20;99.90
21772;DHT22;11047;47.904;8.110;2022-10-15T10:06:43;13.10;99.90
21772;DHT22;11047;47.904;8.110;2022-10-15T10:09:16;13.20;99.90
21772;DHT22;11047;47.904;8.110;2022-10-15T10:11:47;13.20;99.90
21772;DHT22;11047;47.904;8.110;2022-10-15T10:14:22;13.20;99.90
21772;DHT22;11047;47.904;8.110;2022-10-15T10:17:14;13.30;99.90
21772;DHT22;11047;47.904;8.110;2022-10-15T10:19:42;13.30;99.90
21772;DHT22;11047;47.904;8.110;2022-10-15T10:22:14;13.40;99.90
21772;DHT22;11047;47.904;8.110;2022-10-15T10:24:43;13.60;99.90
21772;DHT22;11047;47.904;8.110;2022-10-15T10:27:20;13.80;99.90
21772;DHT22;11047;47.904;8.110;2022-10-15T10:29:52;13.90;99.90
21772;DHT22;11047;47.904;8.110;2022-10-15T10:32:22;14.10;99.90
21772;DHT22;11047;47.904;8.110;2022-10-15T10:34:49;14.20;99.90
21772;DHT22;11047;47.904;8.110;2022-10-15T10:37:17;14.20;99.90
21772;DHT22;11047;47.904;8.110;2022-10-15T10:39:51;14.30;99.90
21772;DHT22;11047;47.904;8.110;2022-10-15T10:42:32;14.50;99.90
21772;DHT22;11047;47.904;8.110;2022-10-15T10:45:17;15.00;99.90
21772;DHT22;11047;47.904;8.110;2022-10-15T10:47:45;15.60;99.90
21772;DHT22;11047;47.904;8.110;2022-10-15T10:50:31;15.50;99.90
21772;DHT22;11047;47.904;8.110;2022-10-15T10:53:11;15.70;99.90
21772;DHT22;11047;47.904;8.110;2022-10-15T10:55:41;15.60;99.90
21772;DHT22;11047;47.904;8.110;2022-10-15T10:58:16;15.20;99.90
21772;DHT22;11047;47.904;8.110;2022-10-15T11:00:46;15.10;99.90
21772;DHT22;11047;47.904;8.110;2022-10-15T11:03:21;14.80;99.90
21772;DHT22;11047;47.904;8.110;2022-10-15T11:05:50;14.80;99.90
21772;DHT22;11047;47.904;8.110;2022-10-15T11:08:25;14.60;99.90
21772;DHT22;11047;47.904;8.110;2022-10-15T11:11:01;14.70;99.90
21772;DHT22;11047;47.904;8.110;2022-10-15T11:13:38;14.70;99.90
21772;DHT22;11047;47.904;8.110;2022-10-15T11:16:14;14.80;99.90
21772;DHT22;11047;47.904;8.110;2022-10-15T11:18:55;14.90;99.90
21772;DHT22;11047;47.904;8.110;2022-10-15T11:21:35;15.00;99.90
21772;DHT22;11047;47.904;8.110;2022-10-15T11:24:13;15.30;99.90
21772;DHT22;11047;47.904;8.110;2022-10-15T11:26:51;15.70;99.90
21772;DHT22;11047;47.904;8.110;2022-10-15T11:29:28;16.30;99.90
21772;DHT22;11047;47.904;8.110;2022-10-15T11:32:02;16.30;99.90
21772;DHT22;11047;47.904;8.110;2022-10-15T11:34:40;16.50;99.90
21772;DHT22;11047;47.904;8.110;2022-10-15T11:37:21;16.70;99.90
21772;DHT22;11047;47.904;8.110;2022-10-15T11:40:02;16.50;99.90
21772;DHT22;11047;47.904;8.110;2022-10-15T11:42:41;16.50;99.90
21772;DHT22;11047;47.904;8.110;2022-10-15T11:48:31;16.50;99.90
21772;DHT22;11047;47.904;8.110;2022-10-15T11:51:02;16.30;99.90
21772;DHT22;11047;47.904;8.110;2022-10-15T11:53:49;16.40;99.90
21772;DHT22;11047;47.904;8.110;2022-10-15T11:56:19;16.80;99.90
21772;DHT22;11047;47.904;8.110;2022-10-15T11:58:52;17.10;99.90
21772;DHT22;11047;47.904;8.110;2022-10-15T12:01:26;17.40;99.90
21772;DHT22;11047;47.904;8.110;2022-10-15T12:03:57;17.50;99.90
21772;DHT22;11047;47.904;8.110;2022-10-15T12:06:30;17.40;99.90
21772;DHT22;11047;47.904;8.110;2022-10-15T12:08:59;17.50;99.90
21772;DHT22;11047;47.904;8.110;2022-10-15T12:11:39;17.40;99.90
21772;DHT22;11047;47.904;8.110;2022-10-15T12:14:19;17.10;99.90
21772;DHT22;11047;47.904;8.110;2022-10-15T12:16:55;16.50;99.90
21772;DHT22;11047;47.904;8.110;2022-10-15T12:19:27;16.30;99.90
21772;DHT22;11047;47.904;8.110;2022-10-15T12:22:04;16.00;99.90
21772;DHT22;11047;47.904;8.110;2022-10-15T12:24:52;15.90;99.90
21772;DHT22;11047;47.904;8.110;2022-10-15T12:27:23;15.60;99.90
21772;DHT22;11047;47.904;8.110;2022-10-15T12:30:20;15.70;99.90
21772;DHT22;11047;47.904;8.110;2022-10-15T12:32:48;15.70;99.90
21772;DHT22;11047;47.904;8.110;2022-10-15T12:35:27;15.90;99.90
21772;DHT22;11047;47.904;8.110;2022-10-15T12:40:56;16.20;99.90
21772;DHT22;11047;47.904;8.110;2022-10-15T12:43:24;16.30;99.90
21772;DHT22;11047;47.904;8.110;2022-10-15T12:45:55;16.40;99.90
21772;DHT22;11047;47.904;8.110;2022-10-15T12:48:31;16.40;99.90
21772;DHT22;11047;47.904;8.110;2022-10-15T12:57:51;16.00;99.90
21772;DHT22;11047;47.904;8.110;2022-10-15T13:00:30;15.90;99.90
21772;DHT22;11047;47.904;8.110;2022-10-15T13:05:49;15.70;99.90
21772;DHT22;11047;47.904;8.110;2022-10-15T13:08:21;15.70;99.90
21772;DHT22;11047;47.904;8.110;2022-10-15T13:10:51;15.70;99.90
21772;DHT22;11047;47.904;8.110;2022-10-15T13:13:21;15.70;99.90
21772;DHT22;11047;47.904;8.110;2022-10-15T13:15:51;15.70;99.90
21772;DHT22;11047;47.904;8.110;2022-10-15T13:18:20;15.80;99.90
21772;DHT22;11047;47.904;8.110;2022-10-15T13:20:48;15.60;99.90
21772;DHT22;11047;47.904;8.110;2022-10-15T13:23:21;15.60;99.90
21772;DHT22;11047;47.904;8.110;2022-10-15T13:25:50;15.50;99.90
21772;DHT22;11047;47.904;8.110;2022-10-15T13:28:31;15.50;99.90
21772;DHT22;11047;47.904;8.110;2022-10-15T13:30:59;15.60;99.90
21772;DHT22;11047;47.904;8.110;2022-10-15T13:33:29;15.60;99.90
21772;DHT22;11047;47.904;8.110;2022-10-15T13:36:04;15.60;99.90
21772;DHT22;11047;47.904;8.110;2022-10-15T13:38:37;15.70;99.90
21772;DHT22;11047;47.904;8.110;2022-10-15T13:41:05;15.70;99.90
21772;DHT22;11047;47.904;8.110;2022-10-15T13:43:33;15.70;99.90
21772;DHT22;11047;47.904;8.110;2022-10-15T13:46:00;15.80;99.90
21772;DHT22;11047;47.904;8.110;2022-10-15T13:48:30;15.90;99.90
21772;DHT22;11047;47.904;8.110;2022-10-15T13:50:59;15.90;99.90
21772;DHT22;11047;47.904;8.110;2022-10-15T13:53:29;15.90;99.90
21772;DHT22;11047;47.904;8.110;2022-10-15T13:55:59;15.90;99.90
21772;DHT22;11047;47.904;8.110;2022-10-15T13:58:28;15.90;99.90
21772;DHT22;11047;47.904;8.110;2022-10-15T14:00:58;15.80;99.90
21772;DHT22;11047;47.904;8.110;2022-10-15T14:03:26;15.90;99.90
21772;DHT22;11047;47.904;8.110;2022-10-15T14:05:55;16.00;99.90
21772;DHT22;11047;47.904;8.110;2022-10-15T14:08:25;16.00;99.90
21772;DHT22;11047;47.904;8.110;2022-10-15T14:10:56;16.00;99.90
21772;DHT22;11047;47.904;8.110;2022-10-15T14:13:23;15.90;99.90
21772;DHT22;11047;47.904;8.110;2022-10-15T14:15:59;16.00;99.90
21772;DHT22;11047;47.904;8.110;2022-10-15T14:18:32;16.00;99.90
21772;DHT22;11047;47.904;8.110;2022-10-15T14:21:01;15.90;99.90
21772;DHT22;11047;47.904;8.110;2022-10-15T14:23:28;15.90;99.90
21772;DHT22;11047;47.904;8.110;2022-10-15T14:25:57;15.80;99.90
21772;DHT22;11047;47.904;8.110;2022-10-15T14:28:26;15.70;99.90
21772;DHT22;11047;47.904;8.110;2022-10-15T14:31:00;15.70;99.90
21772;DHT22;11047;47.904;8.110;2022-10-15T14:33:42;15.70;99.90
21772;DHT22;11047;47.904;8.110;2022-10-15T14:36:24;15.70;99.90
21772;DHT22;11047;47.904;8.110;2022-10-15T14:38:56;15.70;99.90
21772;DHT22;11047;47.904;8.110;2022-10-15T14:41:54;15.80;99.90
21772;DHT22;11047;47.904;8.110;2022-10-15T14:44:21;15.80;99.90
21772;DHT22;11047;47.904;8.110;2022-10-15T14:46:50;15.70;99.90
21772;DHT22;11047;47.904;8.110;2022-10-15T14:49:23;15.60;99.90
21772;DHT22;11047;47.904;8.110;2022-10-15T14:51:58;15.40;99.90
21772;DHT22;11047;47.904;8.110;2022-10-15T14:54:32;15.40;99.90
21772;DHT22;11047;47.904;8.110;2022-10-15T14:57:00;15.40;99.90
21772;DHT22;11047;47.904;8.110;2022-10-15T14:59:30;15.40;99.90
21772;DHT22;11047;47.904;8.110;2022-10-15T15:01:59;15.50;99.90
21772;DHT22;11047;47.904;8.110;2022-10-15T15:04:35;15.50;99.90
21772;DHT22;11047;47.904;8.110;2022-10-15T15:07:17;15.40;99.90
21772;DHT22;11047;47.904;8.110;2022-10-15T15:09:48;15.30;99.90
21772;DHT22;11047;47.904;8.110;2022-10-15T15:12:21;15.30;99.90
21772;DHT22;11047;47.904;8.110;2022-10-15T15:14:48;15.20;99.90
21772;DHT22;11047;47.904;8.110;2022-10-15T15:17:17;15.20;99.90
21772;DHT22;11047;47.904;8.110;2022-10-15T15:19:45;15.20;99.90
21772;DHT22;11047;47.904;8.110;2022-10-15T15:22:16;15.10;99.90
21772;DHT22;11047;47.904;8.110;2022-10-15T15:24:43;15.00;99.90
21772;DHT22;11047;47.904;8.110;2022-10-15T15:27:28;14.90;99.90
21772;DHT22;11047;47.904;8.110;2022-10-15T15:29:56;15.00;99.90
21772;DHT22;11047;47.904;8.110;2022-10-15T15:32:24;14.90;99.90
21772;DHT22;11047;47.904;8.110;2022-10-15T15:34:51;14.80;99.90
21772;DHT22;11047;47.904;8.110;2022-10-15T15:37:22;14.80;99.90
21772;DHT22;11047;47.904;8.110;2022-10-15T15:39:49;14.70;99.90
21772;DHT22;11047;47.904;8.110;2022-10-15T15:42:18;14.70;99.90
21772;DHT22;11047;47.904;8.110;2022-10-15T15:44:45;14.70;99.90
21772;DHT22;11047;47.904;8.110;2022-10-15T15:47:12;14.60;99.90
21772;DHT22;11047;47.904;8.110;2022-10-15T15:49:39;14.60;99.90
21772;DHT22;11047;47.904;8.110;2022-10-15T15:52:08;14.60;99.90
21772;DHT22;11047;47.904;8.110;2022-10-15T15:54:39;14.60;99.90
21772;DHT22;11047;47.904;8.110;2022-10-15T15:57:06;14.60;99.90
21772;DHT22;11047;47.904;8.110;2022-10-15T15:59:33;14.60;99.90
21772;DHT22;11047;47.904;8.110;2022-10-15T16:02:00;14.60;99.90
21772;DHT22;11047;47.904;8.110;2022-10-15T16:04:27;14.60;99.90
21772;DHT22;11047;47.904;8.110;2022-10-15T16:06:54;14.60;99.90